Time;durP1;ratioP1;P1;durP2;ratioP2;P2;SDS_P1;SDS_P2;PMS_P1;PMS_P2;Temp;Humidity;BMP_temperature;BMP_pressure;BME280_temperature;BME280_humidity;BME280_pressure;Samples;Min_cycle;Max_cycle;Signal;HPM_P1;HPM_P2
2023/04/26 00:01:43;;;;;;;4.28;2.50;;;;;;;;;;5000404;28;20085;-80
2023/04/26 00:04:08;;;;;;;4.20;2.55;;;;;;;;;;5001598;28;20282;-86
2023/04/26 00:06:34;;;;;;;8.65;3.20;;;;;;;;;;5000925;28;20028;-80
2023/04/26 00:08:59;;;;;;;3.55;2.22;;;;;;;;;;5000893;28;20025;-77
2023/04/26 00:11:25;;;;;;;5.25;2.55;;;;;;;;;;5000710;28;20099;-75
2023/04/26 00:13:50;;;;;;;3.75;2.30;;;;;;;;;;5000653;28;20018;-88
2023/04/26 00:16:17;;;;;;;4.15;2.13;;;;;;;;;;5001438;28;20085;-90
2023/04/26 00:18:43;;;;;;;4.38;2.65;;;;;;;;;;5002548;28;20113;-85
2023/04/26 00:21:09;;;;;;;3.63;2.33;;;;;;;;;;5004485;28;20054;-82
2023/04/26 00:23:35;;;;;;;5.03;2.55;;;;;;;;;;5004458;28;20046;-90
2023/04/26 00:26:03;;;;;;;4.53;2.40;;;;;;;;;;5005562;28;20061;-88
2023/04/26 00:28:30;;;;;;;4.82;2.50;;;;;;;;;;5005652;28;20097;-87
2023/04/26 00:30:56;;;;;;;4.13;2.28;;;;;;;;;;5005783;28;20360;-90
2023/04/26 00:33:22;;;;;;;4.35;2.70;;;;;;;;;;5005333;28;20325;-90
2023/04/26 00:35:48;;;;;;;4.47;2.40;;;;;;;;;;5005458;28;20410;-88
2023/04/26 00:38:13;;;;;;;4.97;2.67;;;;;;;;;;5004899;28;20022;-90
2023/04/26 00:40:39;;;;;;;5.78;2.58;;;;;;;;;;5004576;28;20093;-90
2023/04/26 00:43:05;;;;;;;5.28;2.90;;;;;;;;;;5004594;28;20018;-90
2023/04/26 00:45:31;;;;;;;6.90;2.70;;;;;;;;;;5004075;28;20022;-89
2023/04/26 00:47:58;;;;;;;4.40;2.53;;;;;;;;;;5003749;28;20093;-88
2023/04/26 00:50:24;;;;;;;4.05;2.67;;;;;;;;;;5003185;28;20029;-89
2023/04/26 00:52:49;;;;;;;4.32;2.35;;;;;;;;;;5004232;28;20030;-90
2023/04/26 00:55:15;;;;;;;7.15;2.63;;;;;;;;;;5003985;28;20023;-89
2023/04/26 00:57:43;;;;;;;5.43;2.35;;;;;;;;;;5003966;28;20101;-90
2023/04/26 01:00:09;;;;;;;4.20;2.50;;;;;;;;;;5004688;28;20203;-89
2023/04/26 01:02:34;;;;;;;4.80;2.58;;;;;;;;;;5004634;28;20026;-90
2023/04/26 01:04:59;;;;;;;3.60;2.30;;;;;;;;;;5004828;28;20041;-89
2023/04/26 01:07:25;;;;;;;4.38;2.30;;;;;;;;;;5004397;28;20305;-85
2023/04/26 01:09:51;;;;;;;4.25;2.47;;;;;;;;;;5004667;28;20025;-90
2023/04/26 01:12:17;;;;;;;3.80;2.45;;;;;;;;;;5004387;28;20215;-91
2023/04/26 01:14:43;;;;;;;3.53;2.30;;;;;;;;;;5003812;28;20018;-90
2023/04/26 01:17:08;;;;;;;4.50;2.65;;;;;;;;;;5004537;28;20250;-90
2023/04/26 01:19:36;;;;;;;2.88;2.17;;;;;;;;;;5004298;28;20023;-89
2023/04/26 01:22:02;;;;;;;3.50;2.10;;;;;;;;;;5003351;28;20026;-90
2023/04/26 01:24:28;;;;;;;5.72;2.50;;;;;;;;;;5003604;28;20037;-89
2023/04/26 01:26:53;;;;;;;4.53;2.70;;;;;;;;;;5002595;28;20019;-90
2023/04/26 01:29:20;;;;;;;7.70;3.22;;;;;;;;;;5003032;28;20037;-89
2023/04/26 01:31:46;;;;;;;4.80;2.70;;;;;;;;;;5004195;28;20026;-90
2023/04/26 01:34:12;;;;;;;4.55;2.67;;;;;;;;;;5002676;28;20030;-90
2023/04/26 01:36:38;;;;;;;4.43;2.90;;;;;;;;;;5003553;28;20081;-89
2023/04/26 01:39:03;;;;;;;4.50;2.50;;;;;;;;;;5003106;28;20034;-89
2023/04/26 01:41:29;;;;;;;5.85;2.80;;;;;;;;;;5001884;28;20115;-90
2023/04/26 01:43:54;;;;;;;4.40;2.75;;;;;;;;;;5003445;28;20031;-90
2023/04/26 01:46:20;;;;;;;5.30;2.85;;;;;;;;;;5004520;28;20036;-90
2023/04/26 01:48:46;;;;;;;8.27;2.85;;;;;;;;;;5003825;28;20054;-89
2023/04/26 01:51:12;;;;;;;4.65;2.65;;;;;;;;;;5004242;28;20026;-90
2023/04/26 01:53:37;;;;;;;4.53;2.70;;;;;;;;;;5003825;28;20045;-90
2023/04/26 01:56:05;;;;;;;6.82;2.70;;;;;;;;;;5002463;28;20080;-90
2023/04/26 01:58:31;;;;;;;3.88;2.45;;;;;;;;;;5002788;28;20050;-90
2023/04/26 02:01:04;;;;;;;6.00;2.83;;;;;;;;;;5002215;28;20030;-89
2023/04/26 02:03:30;;;;;;;5.22;2.88;;;;;;;;;;5002464;28;20039;-90
2023/04/26 02:05:55;;;;;;;4.07;3.03;;;;;;;;;;5003124;28;20026;-89
2023/04/26 02:08:21;;;;;;;6.07;2.95;;;;;;;;;;5003500;28;20121;-90
2023/04/26 02:10:46;;;;;;;4.60;2.80;;;;;;;;;;5003612;28;20317;-87
2023/04/26 02:13:11;;;;;;;5.07;2.97;;;;;;;;;;5003090;28;20253;-90
2023/04/26 02:15:37;;;;;;;5.22;3.08;;;;;;;;;;5003611;28;20042;-90
2023/04/26 02:18:02;;;;;;;5.25;3.20;;;;;;;;;;5003296;28;20330;-85
2023/04/26 02:20:28;;;;;;;5.88;3.28;;;;;;;;;;5003349;28;20029;-90
2023/04/26 02:22:53;;;;;;;3.60;2.90;;;;;;;;;;5003181;28;20097;-85
2023/04/26 02:25:19;;;;;;;5.20;3.20;;;;;;;;;;5002746;28;20022;-88
2023/04/26 02:27:44;;;;;;;5.28;3.53;;;;;;;;;;5001126;28;20038;-83
2023/04/26 02:30:10;;;;;;;5.47;3.05;;;;;;;;;;5001574;28;20064;-82
2023/04/26 02:32:35;;;;;;;5.47;3.17;;;;;;;;;;5002888;28;20048;-85
2023/04/26 02:35:01;;;;;;;5.05;3.10;;;;;;;;;;5000982;28;20033;-87
2023/04/26 02:37:26;;;;;;;5.30;3.42;;;;;;;;;;5000946;28;20072;-90
2023/04/26 02:39:52;;;;;;;5.55;3.45;;;;;;;;;;5000993;28;20022;-83
2023/04/26 02:42:17;;;;;;;6.18;3.05;;;;;;;;;;5001239;28;20023;-88
2023/04/26 02:44:43;;;;;;;6.20;3.47;;;;;;;;;;5001432;28;20069;-88
2023/04/26 02:47:09;;;;;;;5.60;3.58;;;;;;;;;;5001581;28;20234;-89
2023/04/26 02:49:35;;;;;;;4.72;3.28;;;;;;;;;;5002143;28;20029;-90
2023/04/26 02:52:00;;;;;;;4.55;3.10;;;;;;;;;;5002513;28;20095;-81
2023/04/26 02:54:26;;;;;;;7.13;3.20;;;;;;;;;;5001012;28;20089;-88
2023/04/26 02:56:51;;;;;;;5.20;3.47;;;;;;;;;;5001952;28;20034;-90
2023/04/26 02:59:17;;;;;;;6.57;3.70;;;;;;;;;;5001207;28;20125;-89
2023/04/26 03:01:42;;;;;;;6.43;3.30;;;;;;;;;;5001782;28;20089;-90
2023/04/26 03:04:08;;;;;;;5.80;3.60;;;;;;;;;;5001949;28;20038;-86
2023/04/26 03:06:33;;;;;;;5.88;3.45;;;;;;;;;;5001281;28;20030;-87
2023/04/26 03:08:59;;;;;;;5.25;3.30;;;;;;;;;;5002493;28;20100;-79
2023/04/26 03:11:24;;;;;;;6.70;3.67;;;;;;;;;;5001238;28;20022;-89
2023/04/26 03:13:50;;;;;;;4.97;3.53;;;;;;;;;;5000779;28;20089;-85
2023/04/26 03:16:18;;;;;;;4.40;3.38;;;;;;;;;;5002191;28;20139;-89
2023/04/26 03:18:43;;;;;;;5.85;3.67;;;;;;;;;;5001553;28;20037;-80
2023/04/26 03:21:08;;;;;;;6.20;3.20;;;;;;;;;;5001973;28;20027;-87
2023/04/26 03:23:34;;;;;;;5.28;3.28;;;;;;;;;;5001071;28;20112;-84
2023/04/26 03:25:59;;;;;;;4.97;3.53;;;;;;;;;;5000947;28;20030;-84
2023/04/26 03:28:25;;;;;;;6.82;3.75;;;;;;;;;;5001487;28;20034;-89
2023/04/26 03:30:50;;;;;;;4.13;3.33;;;;;;;;;;5001847;28;20082;-91
2023/04/26 03:33:16;;;;;;;6.18;3.55;;;;;;;;;;5001967;28;20407;-85
2023/04/26 03:35:42;;;;;;;7.43;3.70;;;;;;;;;;5001916;28;20068;-88
2023/04/26 03:38:08;;;;;;;8.40;4.30;;;;;;;;;;5002052;28;20197;-79
2023/04/26 03:40:33;;;;;;;6.20;3.70;;;;;;;;;;5001684;28;20409;-88
2023/04/26 03:42:59;;;;;;;5.95;3.58;;;;;;;;;;5001002;28;20022;-90
2023/04/26 03:45:25;;;;;;;6.75;3.50;;;;;;;;;;5000960;28;20054;-90
2023/04/26 03:47:51;;;;;;;5.32;3.85;;;;;;;;;;5001264;28;20034;-90
2023/04/26 03:50:17;;;;;;;8.35;3.70;;;;;;;;;;5000452;28;20065;-90
2023/04/26 03:52:43;;;;;;;6.00;4.07;;;;;;;;;;5001073;28;20023;-78
2023/04/26 03:55:10;;;;;;;5.97;3.47;;;;;;;;;;4999943;28;20089;-77
2023/04/26 03:57:35;;;;;;;8.45;3.90;;;;;;;;;;4999964;28;20049;-81
2023/04/26 04:00:01;;;;;;;6.20;3.42;;;;;;;;;;5000643;28;20026;-90
2023/04/26 04:02:26;;;;;;;5.25;3.67;;;;;;;;;;5000244;28;20026;-89
2023/04/26 04:04:52;;;;;;;5.00;3.90;;;;;;;;;;4999892;28;20037;-88
2023/04/26 04:07:18;;;;;;;6.70;3.90;;;;;;;;;;5001497;28;20045;-89
2023/04/26 04:09:43;;;;;;;6.60;3.85;;;;;;;;;;4999197;28;20018;-90
2023/04/26 04:12:08;;;;;;;6.20;3.80;;;;;;;;;;4998408;28;20092;-89
2023/04/26 04:14:34;;;;;;;5.63;3.30;;;;;;;;;;5000393;28;20083;-91
2023/04/26 04:16:59;;;;;;;5.82;4.15;;;;;;;;;;4999093;28;20061;-90
2023/04/26 04:19:25;;;;;;;5.75;3.75;;;;;;;;;;4992672;28;20023;-90
2023/04/26 04:21:51;;;;;;;7.35;3.88;;;;;;;;;;4981335;28;20029;-90
2023/04/26 04:24:16;;;;;;;5.20;3.97;;;;;;;;;;4995804;28;20222;-89
2023/04/26 04:26:41;;;;;;;6.47;3.92;;;;;;;;;;4981082;28;20382;-90
2023/04/26 04:29:10;;;;;;;7.20;4.07;;;;;;;;;;4980924;28;20074;-89
2023/04/26 04:31:35;;;;;;;5.78;3.95;;;;;;;;;;4995407;28;20034;-90
2023/04/26 04:34:01;;;;;;;6.97;4.28;;;;;;;;;;4980852;28;20242;-89
2023/04/26 04:36:26;;;;;;;7.45;4.38;;;;;;;;;;4980434;28;20034;-90
2023/04/26 04:38:55;;;;;;;7.10;4.47;;;;;;;;;;4980686;28;20023;-90
2023/04/26 04:41:21;;;;;;;6.95;4.55;;;;;;;;;;4980727;28;20087;-90
2023/04/26 04:43:46;;;;;;;8.25;4.38;;;;;;;;;;4980456;28;20027;-89
2023/04/26 04:46:12;;;;;;;6.25;4.05;;;;;;;;;;4980512;28;20158;-91
2023/04/26 04:48:37;;;;;;;5.63;4.20;;;;;;;;;;4980379;28;20033;-90
2023/04/26 04:51:03;;;;;;;7.93;5.05;;;;;;;;;;4980719;28;20046;-90
2023/04/26 04:53:29;;;;;;;7.45;4.47;;;;;;;;;;4980355;28;20023;-91
2023/04/26 04:55:55;;;;;;;7.60;4.75;;;;;;;;;;4979012;28;20030;-91
2023/04/26 04:58:21;;;;;;;9.00;5.25;;;;;;;;;;4981514;28;20092;-90
2023/04/26 05:00:47;;;;;;;8.13;4.90;;;;;;;;;;4980397;28;20493;-89
2023/04/26 05:03:13;;;;;;;10.25;6.32;;;;;;;;;;4982909;28;20022;-90
2023/04/26 05:05:39;;;;;;;8.20;6.03;;;;;;;;;;4984415;28;20045;-90
2023/04/26 05:08:08;;;;;;;7.00;5.32;;;;;;;;;;4984881;28;20230;-87
2023/04/26 05:10:34;;;;;;;10.27;6.68;;;;;;;;;;4984950;28;20069;-90
2023/04/26 05:13:00;;;;;;;6.97;5.50;;;;;;;;;;4984791;28;20042;-90
2023/04/26 05:15:25;;;;;;;8.18;5.68;;;;;;;;;;4985212;28;20026;-91
2023/04/26 05:17:51;;;;;;;8.50;6.10;;;;;;;;;;4982652;28;20496;-91
2023/04/26 05:20:16;;;;;;;9.05;5.47;;;;;;;;;;4984121;28;20214;-90
2023/04/26 05:22:42;;;;;;;9.18;5.40;;;;;;;;;;4984073;28;20022;-90
2023/04/26 05:25:08;;;;;;;8.05;5.82;;;;;;;;;;4983567;28;20187;-90
2023/04/26 05:27:33;;;;;;;12.27;6.18;;;;;;;;;;4983840;28;20041;-90
2023/04/26 05:30:04;;;;;;;9.77;6.22;;;;;;;;;;4985191;28;20377;-90
2023/04/26 05:32:29;;;;;;;10.82;6.80;;;;;;;;;;4985007;28;20026;-91
2023/04/26 05:34:54;;;;;;;9.70;6.05;;;;;;;;;;4985134;28;20275;-91
2023/04/26 05:37:20;;;;;;;9.20;5.72;;;;;;;;;;4984580;28;20030;-91
2023/04/26 05:39:45;;;;;;;8.35;5.82;;;;;;;;;;4985027;28;20085;-91
2023/04/26 05:42:11;;;;;;;9.73;6.00;;;;;;;;;;4984370;28;20203;-91
2023/04/26 05:44:36;;;;;;;7.38;5.38;;;;;;;;;;4983236;28;20033;-90
2023/04/26 05:47:02;;;;;;;7.60;5.43;;;;;;;;;;4983887;28;20039;-92
2023/04/26 05:49:27;;;;;;;12.43;5.80;;;;;;;;;;4984608;28;20103;-91
2023/04/26 05:51:52;;;;;;;7.10;5.50;;;;;;;;;;4999329;28;20035;-89
2023/04/26 05:54:18;;;;;;;7.30;5.30;;;;;;;;;;4984644;28;20094;-83
2023/04/26 05:56:43;;;;;;;6.88;5.05;;;;;;;;;;4984334;28;20050;-90
2023/04/26 05:59:09;;;;;;;7.57;4.93;;;;;;;;;;4984332;28;20035;-87
2023/04/26 06:01:34;;;;;;;5.85;4.32;;;;;;;;;;4984489;28;20029;-91
2023/04/26 06:04:00;;;;;;;5.70;4.45;;;;;;;;;;4984473;28;20314;-90
2023/04/26 06:06:27;;;;;;;6.65;4.80;;;;;;;;;;4984289;28;20050;-90
2023/04/26 06:08:52;;;;;;;5.78;4.40;;;;;;;;;;4984091;28;20036;-90
2023/04/26 06:11:18;;;;;;;6.82;4.45;;;;;;;;;;4984138;28;20050;-80
2023/04/26 06:13:43;;;;;;;6.28;4.00;;;;;;;;;;4982681;28;20188;-89
2023/04/26 06:16:09;;;;;;;5.25;3.70;;;;;;;;;;4996358;28;20085;-90
2023/04/26 06:18:34;;;;;;;5.28;4.03;;;;;;;;;;5002551;28;20026;-84
2023/04/26 06:20:59;;;;;;;4.28;3.30;;;;;;;;;;5002691;28;20018;-86
2023/04/26 06:23:25;;;;;;;3.95;2.78;;;;;;;;;;5002866;28;20050;-89
2023/04/26 06:25:50;;;;;;;6.18;3.10;;;;;;;;;;5000754;28;20098;-88
2023/04/26 06:28:16;;;;;;;4.07;2.90;;;;;;;;;;4983554;28;20089;-86
2023/04/26 06:30:41;;;;;;;4.22;3.17;;;;;;;;;;4983938;28;20069;-91
2023/04/26 06:33:07;;;;;;;4.40;3.38;;;;;;;;;;4983760;28;20338;-87
2023/04/26 06:35:39;;;;;;;3.67;2.58;;;;;;;;;;4983602;28;20030;-88
2023/04/26 06:38:04;;;;;;;4.15;2.95;;;;;;;;;;4983168;28;20030;-82
2023/04/26 06:40:30;;;;;;;5.03;2.92;;;;;;;;;;4983059;28;20044;-80
2023/04/26 06:42:56;;;;;;;3.63;2.75;;;;;;;;;;4983090;28;20027;-88
2023/04/26 06:45:21;;;;;;;3.92;2.78;;;;;;;;;;4985015;28;20046;-85
2023/04/26 06:47:51;;;;;;;4.75;2.63;;;;;;;;;;5001922;28;20022;-86
2023/04/26 06:50:17;;;;;;;3.78;2.67;;;;;;;;;;5001597;28;20026;-85
2023/04/26 06:52:42;;;;;;;3.15;2.50;;;;;;;;;;5001391;28;20046;-84
2023/04/26 06:55:08;;;;;;;3.78;2.45;;;;;;;;;;5001153;28;20046;-78
2023/04/26 06:57:34;;;;;;;6.05;2.90;;;;;;;;;;5001653;28;20109;-83
2023/04/26 06:59:59;;;;;;;4.00;2.80;;;;;;;;;;5001699;28;20271;-82
2023/04/26 07:02:25;;;;;;;4.13;2.88;;;;;;;;;;4997324;28;20210;-83
2023/04/26 07:04:51;;;;;;;4.32;2.85;;;;;;;;;;5001359;28;20069;-78
2023/04/26 07:07:16;;;;;;;4.32;2.50;;;;;;;;;;5001609;28;20145;-85
2023/04/26 07:09:42;;;;;;;4.75;2.55;;;;;;;;;;5001635;28;20034;-81
2023/04/26 07:12:10;;;;;;;3.65;2.85;;;;;;;;;;5001783;28;20118;-82
2023/04/26 07:14:39;;;;;;;3.17;2.75;;;;;;;;;;5001886;28;20033;-83
2023/04/26 07:17:04;;;;;;;3.15;2.40;;;;;;;;;;4998983;28;20217;-84
2023/04/26 07:19:30;;;;;;;4.05;2.72;;;;;;;;;;5000681;28;20024;-83
2023/04/26 07:21:55;;;;;;;3.28;2.65;;;;;;;;;;5001114;28;20330;-82
2023/04/26 07:24:20;;;;;;;3.92;2.70;;;;;;;;;;5000800;28;20214;-83
2023/04/26 07:26:46;;;;;;;3.72;2.72;;;;;;;;;;4998544;28;20026;-85
2023/04/26 07:29:11;;;;;;;3.70;2.78;;;;;;;;;;4996657;28;20517;-79
2023/04/26 07:31:37;;;;;;;4.50;2.90;;;;;;;;;;4989064;28;20030;-88
2023/04/26 07:34:03;;;;;;;3.60;2.75;;;;;;;;;;4992396;28;20030;-86
2023/04/26 07:36:28;;;;;;;4.38;2.78;;;;;;;;;;4988687;28;20102;-85
2023/04/26 07:38:54;;;;;;;3.80;3.10;;;;;;;;;;4987200;28;20470;-79
2023/04/26 07:41:19;;;;;;;4.75;2.80;;;;;;;;;;4988388;28;20061;-79
2023/04/26 07:43:44;;;;;;;4.32;2.85;;;;;;;;;;4988088;28;20030;-78
2023/04/26 07:46:10;;;;;;;3.75;2.95;;;;;;;;;;4987865;28;20153;-82
2023/04/26 07:48:35;;;;;;;4.45;3.58;;;;;;;;;;4988347;28;20130;-80
2023/04/26 07:51:09;;;;;;;4.22;3.22;;;;;;;;;;4988521;28;20069;-80
2023/04/26 07:53:34;;;;;;;4.55;3.00;;;;;;;;;;4988635;28;20126;-85
2023/04/26 07:55:59;;;;;;;3.65;2.60;;;;;;;;;;4989376;28;20105;-84
2023/04/26 07:58:25;;;;;;;5.65;2.90;;;;;;;;;;4988386;28;20081;-82
2023/04/26 08:00:50;;;;;;;5.43;2.95;;;;;;;;;;4989504;28;20122;-85
2023/04/26 08:03:16;;;;;;;4.90;2.95;;;;;;;;;;4988630;28;20036;-85
2023/04/26 08:05:42;;;;;;;4.75;2.67;;;;;;;;;;4989354;28;20073;-85
2023/04/26 08:08:08;;;;;;;4.22;2.70;;;;;;;;;;4989605;28;20050;-84
2023/04/26 08:10:33;;;;;;;4.28;2.85;;;;;;;;;;4989870;28;20027;-85
2023/04/26 08:13:02;;;;;;;4.78;3.00;;;;;;;;;;4989660;28;20627;-84
2023/04/26 08:15:28;;;;;;;5.32;2.92;;;;;;;;;;4989421;28;20061;-85
2023/04/26 08:17:53;;;;;;;4.63;2.80;;;;;;;;;;4988242;28;20409;-84
2023/04/26 08:20:19;;;;;;;5.93;3.67;;;;;;;;;;4989555;28;20031;-84
2023/04/26 08:22:45;;;;;;;4.53;3.20;;;;;;;;;;4989448;28;20041;-84
2023/04/26 08:25:11;;;;;;;5.10;2.90;;;;;;;;;;4989696;28;20454;-85
2023/04/26 08:27:36;;;;;;;6.30;3.42;;;;;;;;;;4987900;28;20037;-84
2023/04/26 08:30:03;;;;;;;4.30;3.05;;;;;;;;;;5007681;28;20564;-84
2023/04/26 08:32:28;;;;;;;6.03;3.22;;;;;;;;;;5008894;28;20037;-85
2023/04/26 08:34:54;;;;;;;4.38;2.95;;;;;;;;;;5007712;28;20026;-84
2023/04/26 08:37:19;;;;;;;4.97;2.95;;;;;;;;;;5008540;28;20026;-84
2023/04/26 08:39:45;;;;;;;4.13;3.03;;;;;;;;;;5012919;28;20033;-84
2023/04/26 08:42:16;;;;;;;4.90;2.80;;;;;;;;;;5013648;28;20033;-85
2023/04/26 08:44:43;;;;;;;3.88;2.30;;;;;;;;;;5027446;28;20034;-83
2023/04/26 08:47:30;;;;;;;4.70;2.90;;;;;;;;;;5031291;28;20084;-86
2023/04/26 08:50:02;;;;;;;5.85;3.10;;;;;;;;;;5014092;28;20564;-85
2023/04/26 08:52:29;;;;;;;4.43;2.72;;;;;;;;;;5013146;28;20036;-84
2023/04/26 08:54:56;;;;;;;5.13;3.00;;;;;;;;;;4998867;28;20442;-86
2023/04/26 08:57:23;;;;;;;5.13;3.20;;;;;;;;;;4992976;28;20500;-86
2023/04/26 08:59:50;;;;;;;4.30;3.08;;;;;;;;;;4993047;28;20026;-86
2023/04/26 09:02:20;;;;;;;5.40;3.15;;;;;;;;;;4993467;28;20042;-86
2023/04/26 09:04:46;;;;;;;5.53;2.83;;;;;;;;;;4991839;28;20387;-87
2023/04/26 09:07:19;;;;;;;4.88;2.92;;;;;;;;;;4992931;28;20038;-86
2023/04/26 09:09:48;;;;;;;3.88;2.55;;;;;;;;;;4992800;28;20026;-85
2023/04/26 09:12:17;;;;;;;5.15;3.13;;;;;;;;;;4992813;28;20030;-86
2023/04/26 09:14:42;;;;;;;4.47;3.00;;;;;;;;;;4992332;28;20472;-85
2023/04/26 09:17:27;;;;;;;3.75;2.88;;;;;;;;;;4992659;28;20498;-85
2023/04/26 09:19:53;;;;;;;4.50;3.15;;;;;;;;;;4992478;28;20030;-86
2023/04/26 09:22:34;;;;;;;5.50;3.28;;;;;;;;;;4992575;28;20028;-86
2023/04/26 09:25:02;;;;;;;4.90;2.90;;;;;;;;;;4993141;28;20030;-89
2023/04/26 09:27:34;;;;;;;5.10;3.28;;;;;;;;;;4993533;28;20034;-90
2023/04/26 09:30:09;;;;;;;6.82;2.92;;;;;;;;;;4990172;28;20026;-88
2023/04/26 09:32:50;;;;;;;4.93;2.90;;;;;;;;;;4989899;28;20022;-90
2023/04/26 09:35:28;;;;;;;3.88;2.70;;;;;;;;;;4992371;28;20022;-90
2023/04/26 09:38:02;;;;;;;4.57;2.92;;;;;;;;;;4985650;28;20023;-91
2023/04/26 09:40:33;;;;;;;4.10;3.00;;;;;;;;;;4989948;28;20466;-82
2023/04/26 09:43:01;;;;;;;5.15;2.75;;;;;;;;;;4994062;28;20026;-88
2023/04/26 09:45:28;;;;;;;4.90;2.92;;;;;;;;;;4998195;28;20065;-89
2023/04/26 09:47:54;;;;;;;4.22;2.80;;;;;;;;;;5000805;28;20179;-88
2023/04/26 09:50:27;;;;;;;5.95;3.00;;;;;;;;;;5003324;28;20026;-89
2023/04/26 09:52:52;;;;;;;3.97;2.72;;;;;;;;;;5003683;28;20101;-90
2023/04/26 09:55:29;;;;;;;4.13;2.70;;;;;;;;;;5003605;28;20029;-90
2023/04/26 09:57:59;;;;;;;4.10;2.65;;;;;;;;;;5003674;28;20046;-88
2023/04/26 10:00:26;;;;;;;4.97;2.80;;;;;;;;;;5003461;28;20038;-90
2023/04/26 10:02:54;;;;;;;5.97;3.08;;;;;;;;;;5002508;28;20034;-89
2023/04/26 10:05:21;;;;;;;7.13;3.17;;;;;;;;;;5003115;28;20036;-91
2023/04/26 10:07:48;;;;;;;3.25;2.58;;;;;;;;;;5003198;28;20026;-90
2023/04/26 10:10:13;;;;;;;3.72;2.45;;;;;;;;;;5002384;28;20022;-89
2023/04/26 10:12:41;;;;;;;4.15;2.80;;;;;;;;;;5002326;28;20217;-89
2023/04/26 10:15:08;;;;;;;5.18;3.05;;;;;;;;;;5002429;28;20025;-89
2023/04/26 10:17:34;;;;;;;4.63;2.90;;;;;;;;;;5003438;28;20018;-90
2023/04/26 10:20:04;;;;;;;4.22;3.15;;;;;;;;;;5003714;28;20073;-91
2023/04/26 10:22:34;;;;;;;5.50;3.08;;;;;;;;;;5003955;28;20022;-90
2023/04/26 10:25:00;;;;;;;5.88;3.25;;;;;;;;;;5003704;28;20018;-89
2023/04/26 10:27:44;;;;;;;5.75;3.13;;;;;;;;;;5003396;28;20018;-90
2023/04/26 10:30:15;;;;;;;5.22;3.22;;;;;;;;;;5001196;28;20081;-89
2023/04/26 10:32:55;;;;;;;;;;;;;;;;;;4999726;28;20108;-88
2023/04/26 10:35:22;;;;;;;8.70;3.92;;;;;;;;;;4991496;28;19921;-87
2023/04/26 10:38:02;;;;;;;5.38;3.00;;;;;;;;;;4994845;28;20090;-84
2023/04/26 10:40:30;;;;;;;4.70;2.75;;;;;;;;;;4990991;28;20029;-78
2023/04/26 10:43:12;;;;;;;5.88;3.45;;;;;;;;;;4994992;28;20038;-77
2023/04/26 10:45:39;;;;;;;3.78;3.00;;;;;;;;;;4995521;28;20101;-77
2023/04/26 10:48:26;;;;;;;4.55;2.95;;;;;;;;;;5000697;28;20061;-77
2023/04/26 10:51:31;;;;;;;5.13;3.03;;;;;;;;;;4992187;28;20043;-78
2023/04/26 10:53:57;;;;;;;4.88;3.20;;;;;;;;;;4991615;28;20053;-75
2023/04/26 10:56:22;;;;;;;4.28;2.90;;;;;;;;;;4994134;28;20325;-78
2023/04/26 10:58:48;;;;;;;5.07;3.50;;;;;;;;;;5000787;28;20389;-77
2023/04/26 11:01:16;;;;;;;4.13;2.83;;;;;;;;;;4998009;28;20022;-76
2023/04/26 11:03:42;;;;;;;4.00;2.42;;;;;;;;;;4989159;28;20382;-76
2023/04/26 11:06:14;;;;;;;6.25;2.75;;;;;;;;;;4990277;28;20053;-80
2023/04/26 11:08:40;;;;;;;2.90;1.95;;;;;;;;;;4990585;28;20027;-78
2023/04/26 11:11:09;;;;;;;2.28;1.65;;;;;;;;;;4989846;28;20033;-76
2023/04/26 11:13:39;;;;;;;2.40;1.77;;;;;;;;;;4990274;28;20118;-78
2023/04/26 11:16:09;;;;;;;3.13;2.10;;;;;;;;;;4988705;28;20033;-78
2023/04/26 11:18:37;;;;;;;2.92;2.20;;;;;;;;;;4990254;28;20134;-78
2023/04/26 11:21:05;;;;;;;3.42;2.15;;;;;;;;;;5006054;28;20026;-78
2023/04/26 11:23:30;;;;;;;4.53;2.40;;;;;;;;;;5009938;28;20045;-76
2023/04/26 11:26:07;;;;;;;4.38;2.60;;;;;;;;;;5009734;28;20596;-77
2023/04/26 11:28:37;;;;;;;4.28;2.72;;;;;;;;;;5010039;28;20092;-79
2023/04/26 11:31:05;;;;;;;3.78;2.30;;;;;;;;;;5004106;28;20577;-77
2023/04/26 11:33:55;;;;;;;3.80;2.70;;;;;;;;;;4990053;28;20398;-78
2023/04/26 11:36:22;;;;;;;3.38;2.47;;;;;;;;;;4989914;28;20023;-78
2023/04/26 11:38:47;;;;;;;6.03;2.45;;;;;;;;;;4993735;28;20057;-77
2023/04/26 11:41:13;;;;;;;4.55;2.47;;;;;;;;;;4994602;28;20034;-77
2023/04/26 11:43:39;;;;;;;2.85;2.00;;;;;;;;;;4996695;28;20052;-81
2023/04/26 11:46:06;;;;;;;2.63;1.92;;;;;;;;;;4999217;28;20022;-79
2023/04/26 11:48:34;;;;;;;2.20;1.73;;;;;;;;;;4990522;28;20402;-79
2023/04/26 11:51:02;;;;;;;3.40;2.20;;;;;;;;;;4996029;28;20030;-77
2023/04/26 11:53:38;;;;;;;3.17;2.08;;;;;;;;;;4998425;28;20018;-77
2023/04/26 11:56:17;;;;;;;3.15;2.38;;;;;;;;;;5000130;28;20026;-79
2023/04/26 11:58:44;;;;;;;3.10;2.10;;;;;;;;;;4992688;28;20052;-78
2023/04/26 12:01:09;;;;;;;4.05;2.03;;;;;;;;;;4991061;28;20040;-79
2023/04/26 12:03:36;;;;;;;1.90;1.40;;;;;;;;;;4991471;28;20109;-80
2023/04/26 12:06:03;;;;;;;2.28;1.60;;;;;;;;;;4989547;28;20031;-78
2023/04/26 12:08:30;;;;;;;3.28;1.50;;;;;;;;;;4990156;28;20458;-85
2023/04/26 12:11:03;;;;;;;2.60;1.30;;;;;;;;;;4990226;28;20033;-80
2023/04/26 12:13:29;;;;;;;2.13;1.30;;;;;;;;;;4995398;28;20031;-81
2023/04/26 12:15:54;;;;;;;3.40;1.50;;;;;;;;;;5001988;28;20049;-80
2023/04/26 12:18:22;;;;;;;3.90;1.50;;;;;;;;;;4995976;28;20507;-80
2023/04/26 12:20:48;;;;;;;1.67;1.23;;;;;;;;;;4993424;28;20506;-80
2023/04/26 12:23:15;;;;;;;4.78;1.13;;;;;;;;;;4993903;28;20022;-80
2023/04/26 12:25:52;;;;;;;2.35;1.20;;;;;;;;;;4992742;28;20026;-81
2023/04/26 12:28:18;;;;;;;1.75;1.00;;;;;;;;;;4993780;28;20044;-79
2023/04/26 12:30:43;;;;;;;1.95;1.00;;;;;;;;;;4991852;28;20640;-80
2023/04/26 12:33:08;;;;;;;2.22;1.00;;;;;;;;;;4993420;28;20574;-79
2023/04/26 12:35:34;;;;;;;1.55;1.00;;;;;;;;;;4993086;28;20056;-79
2023/04/26 12:38:00;;;;;;;1.42;1.00;;;;;;;;;;4993130;28;20034;-80
2023/04/26 12:40:27;;;;;;;1.70;0.98;;;;;;;;;;4993152;28;20483;-80
2023/04/26 12:42:54;;;;;;;1.05;0.90;;;;;;;;;;4993428;28;20117;-79
2023/04/26 12:45:21;;;;;;;2.17;1.00;;;;;;;;;;4993334;28;20027;-82
2023/04/26 12:47:47;;;;;;;1.70;1.20;;;;;;;;;;4992927;28;20027;-82
2023/04/26 12:50:14;;;;;;;1.77;1.20;;;;;;;;;;4991683;28;20034;-81
2023/04/26 12:52:42;;;;;;;1.83;1.20;;;;;;;;;;4991467;28;20625;-81
2023/04/26 12:55:09;;;;;;;1.92;1.20;;;;;;;;;;4992911;28;20026;-80
2023/04/26 12:57:38;;;;;;;2.92;0.95;;;;;;;;;;4991533;28;20065;-81
2023/04/26 13:00:06;;;;;;;1.37;1.10;;;;;;;;;;4993167;28;20033;-79
2023/04/26 13:02:32;;;;;;;2.08;1.00;;;;;;;;;;4992932;28;20058;-81
2023/04/26 13:04:59;;;;;;;1.27;0.98;;;;;;;;;;4993967;28;20115;-76
2023/04/26 13:07:25;;;;;;;3.67;1.33;;;;;;;;;;4998522;28;20041;-81
2023/04/26 13:09:50;;;;;;;2.10;1.10;;;;;;;;;;4993218;28;20026;-79
2023/04/26 13:12:16;;;;;;;1.60;1.00;;;;;;;;;;4991651;28;20034;-80
2023/04/26 13:14:42;;;;;;;2.45;0.90;;;;;;;;;;4991579;28;20109;-79
2023/04/26 13:17:08;;;;;;;2.55;1.20;;;;;;;;;;4994118;28;20026;-80
2023/04/26 13:19:36;;;;;;;2.47;1.15;;;;;;;;;;5001116;28;20034;-80
2023/04/26 13:22:03;;;;;;;1.77;1.30;;;;;;;;;;4996965;28;20038;-80
2023/04/26 13:24:30;;;;;;;3.47;1.38;;;;;;;;;;5002508;28;20022;-80
2023/04/26 13:26:56;;;;;;;2.63;1.35;;;;;;;;;;4995186;28;20549;-81
2023/04/26 13:29:22;;;;;;;2.05;1.08;;;;;;;;;;4992442;28;20041;-83
2023/04/26 13:31:47;;;;;;;1.30;1.00;;;;;;;;;;4992232;28;20041;-82
2023/04/26 13:34:12;;;;;;;1.60;1.20;;;;;;;;;;4996378;28;20395;-79
2023/04/26 13:36:38;;;;;;;1.50;1.17;;;;;;;;;;4991457;28;20038;-80
2023/04/26 13:39:06;;;;;;;2.20;1.23;;;;;;;;;;4989588;28;20038;-79
2023/04/26 13:41:33;;;;;;;2.35;1.30;;;;;;;;;;4990720;28;20027;-80
2023/04/26 13:44:00;;;;;;;2.55;1.23;;;;;;;;;;4991102;28;20030;-80
2023/04/26 13:46:26;;;;;;;2.58;1.42;;;;;;;;;;4990316;28;20037;-79
2023/04/26 13:48:52;;;;;;;3.20;1.40;;;;;;;;;;4990599;28;20117;-80
2023/04/26 13:51:17;;;;;;;2.30;1.20;;;;;;;;;;4990758;28;20066;-80
2023/04/26 13:53:42;;;;;;;1.83;1.30;;;;;;;;;;4992035;28;20023;-78
2023/04/26 13:56:08;;;;;;;2.10;1.20;;;;;;;;;;4991763;28;20039;-79
2023/04/26 13:58:34;;;;;;;4.13;1.20;;;;;;;;;;4991545;28;20589;-80
2023/04/26 14:01:00;;;;;;;1.70;1.00;;;;;;;;;;4992097;28;20022;-79
2023/04/26 14:03:26;;;;;;;1.60;1.20;;;;;;;;;;4990488;28;20605;-78
2023/04/26 14:05:51;;;;;;;3.15;1.10;;;;;;;;;;4991668;28;20026;-80
2023/04/26 14:08:17;;;;;;;1.58;1.10;;;;;;;;;;4991330;28;20030;-78
2023/04/26 14:10:42;;;;;;;1.33;1.00;;;;;;;;;;4992031;28;20106;-81
2023/04/26 14:13:08;;;;;;;3.30;1.15;;;;;;;;;;4991587;28;20029;-80
2023/04/26 14:15:33;;;;;;;1.27;1.00;;;;;;;;;;4991809;28;20026;-81
2023/04/26 14:17:58;;;;;;;1.50;1.10;;;;;;;;;;4991427;28;20490;-81
2023/04/26 14:20:24;;;;;;;1.83;1.10;;;;;;;;;;4991411;28;20056;-80
2023/04/26 14:22:49;;;;;;;1.40;1.13;;;;;;;;;;4990984;28;20074;-80
2023/04/26 14:25:15;;;;;;;1.50;1.17;;;;;;;;;;4991545;28;20030;-80
2023/04/26 14:27:42;;;;;;;1.67;1.10;;;;;;;;;;4991169;28;20082;-81
2023/04/26 14:30:07;;;;;;;2.67;1.13;;;;;;;;;;4991168;28;20042;-81
2023/04/26 14:32:33;;;;;;;1.55;1.05;;;;;;;;;;4991123;28;20085;-78
2023/04/26 14:34:58;;;;;;;2.58;1.10;;;;;;;;;;4990432;28;20061;-81
2023/04/26 14:37:24;;;;;;;2.10;1.10;;;;;;;;;;4990696;28;20030;-80
2023/04/26 14:39:49;;;;;;;1.20;0.90;;;;;;;;;;4989919;28;20069;-85
2023/04/26 14:42:15;;;;;;;1.85;1.05;;;;;;;;;;4990444;28;20567;-82